sensor_id;sensor_type;location;lat;lon;timestamp;pressure;altitude;pressure_sealevel;temperature;humidity
53647;BME280;39550;52.230;5.194;2022-11-25T00:01:20;100779.03;;;7.05;83.23
53647;BME280;39550;52.230;5.194;2022-11-25T00:03:47;100767.06;;;7.04;83.65
53647;BME280;39550;52.230;5.194;2022-11-25T00:06:14;100761.06;;;7.03;83.63
53647;BME280;39550;52.230;5.194;2022-11-25T00:08:41;100760.22;;;7.03;83.30
53647;BME280;39550;52.230;5.194;2022-11-25T00:11:07;100763.66;;;7.05;83.28
53647;BME280;39550;52.230;5.194;2022-11-25T00:13:32;100760.25;;;7.06;83.25
53647;BME280;39550;52.230;5.194;2022-11-25T00:16:02;100755.97;;;7.05;83.76
53647;BME280;39550;52.230;5.194;2022-11-25T00:18:27;100754.28;;;7.05;83.38
53647;BME280;39550;52.230;5.194;2022-11-25T00:20:53;100744.00;;;7.04;83.16
53647;BME280;39550;52.230;5.194;2022-11-25T00:23:18;100744.00;;;7.04;83.27
53647;BME280;39550;52.230;5.194;2022-11-25T00:25:44;100740.56;;;7.03;83.69
53647;BME280;39550;52.230;5.194;2022-11-25T00:28:09;100749.13;;;7.04;83.47
53647;BME280;39550;52.230;5.194;2022-11-25T00:30:34;100744.84;;;7.03;83.49
53647;BME280;39550;52.230;5.194;2022-11-25T00:33:00;100745.72;;;7.05;83.85
53647;BME280;39550;52.230;5.194;2022-11-25T00:35:25;100752.56;;;7.04;83.23
53647;BME280;39550;52.230;5.194;2022-11-25T00:37:50;100743.13;;;7.03;83.00
53647;BME280;39550;52.230;5.194;2022-11-25T00:40:16;100744.84;;;7.03;83.20
53647;BME280;39550;52.230;5.194;2022-11-25T00:42:41;100745.69;;;7.03;83.60
53647;BME280;39550;52.230;5.194;2022-11-25T00:45:25;100742.31;;;7.04;83.92
53647;BME280;39550;52.230;5.194;2022-11-25T00:47:52;100737.19;;;7.04;83.69
53647;BME280;39550;52.230;5.194;2022-11-25T00:50:17;100737.19;;;7.04;83.68
53647;BME280;39550;52.230;5.194;2022-11-25T00:52:42;100729.50;;;7.04;83.75
53647;BME280;39550;52.230;5.194;2022-11-25T00:55:08;100738.91;;;7.05;83.73
53647;BME280;39550;52.230;5.194;2022-11-25T00:57:33;100738.91;;;7.05;83.77
53647;BME280;39550;52.230;5.194;2022-11-25T00:59:58;100742.31;;;7.04;83.57
53647;BME280;39550;52.230;5.194;2022-11-25T01:02:24;100737.19;;;7.04;83.66
53647;BME280;39550;52.230;5.194;2022-11-25T01:04:49;100741.44;;;7.04;83.37
53647;BME280;39550;52.230;5.194;2022-11-25T01:07:15;100744.03;;;7.05;83.33
53647;BME280;39550;52.230;5.194;2022-11-25T01:09:41;100744.00;;;7.04;83.73
53647;BME280;39550;52.230;5.194;2022-11-25T01:12:06;100739.75;;;7.06;84.14
53647;BME280;39550;52.230;5.194;2022-11-25T01:14:32;100742.31;;;7.06;83.63
53647;BME280;39550;52.230;5.194;2022-11-25T01:16:58;100744.03;;;7.05;83.27
53647;BME280;39550;52.230;5.194;2022-11-25T01:19:24;100738.91;;;7.05;83.96
53647;BME280;39550;52.230;5.194;2022-11-25T01:21:49;100739.75;;;7.04;83.64
53647;BME280;39550;52.230;5.194;2022-11-25T01:24:15;100747.44;;;7.06;83.08
53647;BME280;39550;52.230;5.194;2022-11-25T01:26:42;100756.88;;;7.07;83.26
53647;BME280;39550;52.230;5.194;2022-11-25T01:29:13;100745.78;;;7.06;84.01
53647;BME280;39550;52.230;5.194;2022-11-25T01:31:39;100758.50;;;7.03;83.55
53647;BME280;39550;52.230;5.194;2022-11-25T01:36:40;100767.97;;;7.07;83.23
53647;BME280;39550;52.230;5.194;2022-11-25T01:39:06;100767.97;;;7.07;83.67
53647;BME280;39550;52.230;5.194;2022-11-25T01:41:33;100774.84;;;7.08;83.24
53647;BME280;39550;52.230;5.194;2022-11-25T01:49:09;100776.53;;;7.06;84.01
53647;BME280;39550;52.230;5.194;2022-11-25T01:51:41;100784.22;;;7.06;83.21
53647;BME280;39550;52.230;5.194;2022-11-25T01:54:10;100773.91;;;7.05;83.44
53647;BME280;39550;52.230;5.194;2022-11-25T01:56:58;100773.03;;;7.04;83.53
53647;BME280;39550;52.230;5.194;2022-11-25T01:59:26;100779.09;;;7.06;83.31
53647;BME280;39550;52.230;5.194;2022-11-25T02:01:53;100774.78;;;7.05;83.95
53647;BME280;39550;52.230;5.194;2022-11-25T02:04:19;100765.38;;;7.06;83.96
53647;BME280;39550;52.230;5.194;2022-11-25T02:06:54;100766.28;;;7.06;83.57
53647;BME280;39550;52.230;5.194;2022-11-25T02:09:21;100776.53;;;7.06;84.17
53647;BME280;39550;52.230;5.194;2022-11-25T02:11:48;100778.22;;;7.07;83.14
53647;BME280;39550;52.230;5.194;2022-11-25T02:14:14;100773.03;;;7.04;83.82
53647;BME280;39550;52.230;5.194;2022-11-25T02:16:41;100783.34;;;7.07;83.73
53647;BME280;39550;52.230;5.194;2022-11-25T02:19:10;100778.22;;;7.07;83.79
53647;BME280;39550;52.230;5.194;2022-11-25T02:21:43;100772.22;;;7.05;83.90
53647;BME280;39550;52.230;5.194;2022-11-25T02:24:13;100779.09;;;7.06;83.48
53647;BME280;39550;52.230;5.194;2022-11-25T02:26:42;100775.66;;;7.07;83.18
53647;BME280;39550;52.230;5.194;2022-11-25T02:29:07;100778.22;;;7.07;83.88
53647;BME280;39550;52.230;5.194;2022-11-25T02:31:33;100773.09;;;7.07;83.15
53647;BME280;39550;52.230;5.194;2022-11-25T02:33:58;100770.53;;;7.07;83.69
53647;BME280;39550;52.230;5.194;2022-11-25T02:36:23;100752.59;;;7.07;83.67
53647;BME280;39550;52.230;5.194;2022-11-25T02:38:57;100756.88;;;7.07;83.96
53647;BME280;39550;52.230;5.194;2022-11-25T02:41:29;100771.41;;;7.06;83.80
53647;BME280;39550;52.230;5.194;2022-11-25T02:43:56;100770.53;;;7.07;83.33
53647;BME280;39550;52.230;5.194;2022-11-25T02:46:24;100767.97;;;7.07;84.07
53647;BME280;39550;52.230;5.194;2022-11-25T02:48:52;100769.66;;;7.05;84.19
53647;BME280;39550;52.230;5.194;2022-11-25T02:51:20;100767.13;;;7.07;84.03
53647;BME280;39550;52.230;5.194;2022-11-25T02:56:18;100773.97;;;7.06;83.57
53647;BME280;39550;52.230;5.194;2022-11-25T02:58:43;100771.41;;;7.06;83.38
53647;BME280;39550;52.230;5.194;2022-11-25T03:01:09;100764.53;;;7.05;83.80
53647;BME280;39550;52.230;5.194;2022-11-25T03:03:35;100767.97;;;7.07;83.37
53647;BME280;39550;52.230;5.194;2022-11-25T03:06:01;100777.38;;;7.07;83.42
53647;BME280;39550;52.230;5.194;2022-11-25T03:08:27;100779.00;;;7.03;83.52
53647;BME280;39550;52.230;5.194;2022-11-25T03:10:52;100783.34;;;7.07;84.07
53647;BME280;39550;52.230;5.194;2022-11-25T03:13:17;100797.88;;;7.07;83.64
53647;BME280;39550;52.230;5.194;2022-11-25T03:15:43;100797.06;;;7.08;83.78
53647;BME280;39550;52.230;5.194;2022-11-25T03:18:08;100796.97;;;7.05;84.00
53647;BME280;39550;52.230;5.194;2022-11-25T03:20:35;100785.88;;;7.06;83.70
53647;BME280;39550;52.230;5.194;2022-11-25T03:23:00;100789.34;;;7.06;83.58
53647;BME280;39550;52.230;5.194;2022-11-25T03:25:26;100793.59;;;7.07;84.11
53647;BME280;39550;52.230;5.194;2022-11-25T03:27:51;100784.22;;;7.06;83.20
53647;BME280;39550;52.230;5.194;2022-11-25T03:30:19;100788.47;;;7.07;83.72
53647;BME280;39550;52.230;5.194;2022-11-25T03:32:45;100798.72;;;7.07;84.21
53647;BME280;39550;52.230;5.194;2022-11-25T03:35:11;100785.03;;;7.05;83.25
53647;BME280;39550;52.230;5.194;2022-11-25T03:37:37;100797.88;;;7.07;83.08
53647;BME280;39550;52.230;5.194;2022-11-25T03:40:04;100786.78;;;7.06;83.66
53647;BME280;39550;52.230;5.194;2022-11-25T03:42:30;100778.94;;;7.00;83.52
53647;BME280;39550;52.230;5.194;2022-11-25T03:44:56;100798.72;;;7.07;83.09
53647;BME280;39550;52.230;5.194;2022-11-25T03:47:21;100793.59;;;7.07;83.97
53647;BME280;39550;52.230;5.194;2022-11-25T03:49:46;100801.25;;;7.06;83.65
53647;BME280;39550;52.230;5.194;2022-11-25T03:52:12;100793.44;;;6.99;84.03
53647;BME280;39550;52.230;5.194;2022-11-25T03:54:38;100805.47;;;7.02;83.48
53647;BME280;39550;52.230;5.194;2022-11-25T03:57:03;100805.47;;;7.02;83.84
53647;BME280;39550;52.230;5.194;2022-11-25T03:59:28;100811.50;;;7.06;83.94
53647;BME280;39550;52.230;5.194;2022-11-25T04:01:54;100818.38;;;7.07;84.00
53647;BME280;39550;52.230;5.194;2022-11-25T04:04:19;100814.09;;;7.07;83.31
53647;BME280;39550;52.230;5.194;2022-11-25T04:06:44;100810.69;;;7.07;83.61
53647;BME280;39550;52.230;5.194;2022-11-25T04:09:10;100825.22;;;7.06;83.93
53647;BME280;39550;52.230;5.194;2022-11-25T04:11:38;100825.16;;;7.05;83.99
53647;BME280;39550;52.230;5.194;2022-11-25T04:14:22;100824.34;;;7.07;84.15
53647;BME280;39550;52.230;5.194;2022-11-25T04:16:47;100824.34;;;7.07;83.71
53647;BME280;39550;52.230;5.194;2022-11-25T04:19:13;100822.66;;;7.06;83.71
53647;BME280;39550;52.230;5.194;2022-11-25T04:21:38;100830.34;;;7.06;83.67
53647;BME280;39550;52.230;5.194;2022-11-25T04:24:04;100843.16;;;7.06;84.15
53647;BME280;39550;52.230;5.194;2022-11-25T04:26:30;100842.28;;;7.07;83.84
53647;BME280;39550;52.230;5.194;2022-11-25T04:28:55;100826.75;;;6.99;83.74
53647;BME280;39550;52.230;5.194;2022-11-25T04:31:21;100846.56;;;7.07;84.21
53647;BME280;39550;52.230;5.194;2022-11-25T04:33:47;100846.53;;;7.05;83.41
53647;BME280;39550;52.230;5.194;2022-11-25T04:36:12;100858.50;;;7.06;83.41
53647;BME280;39550;52.230;5.194;2022-11-25T04:38:37;100863.63;;;7.06;83.67
53647;BME280;39550;52.230;5.194;2022-11-25T04:41:03;100865.28;;;7.04;83.81
53647;BME280;39550;52.230;5.194;2022-11-25T04:43:29;100867.03;;;7.05;83.37
53647;BME280;39550;52.230;5.194;2022-11-25T04:45:55;100866.13;;;7.05;84.21
53647;BME280;39550;52.230;5.194;2022-11-25T04:48:21;100866.09;;;7.03;83.96
53647;BME280;39550;52.230;5.194;2022-11-25T04:50:47;100868.69;;;7.05;83.54
53647;BME280;39550;52.230;5.194;2022-11-25T04:53:12;100866.97;;;7.02;84.01
53647;BME280;39550;52.230;5.194;2022-11-25T04:55:37;100871.25;;;7.05;84.03
53647;BME280;39550;52.230;5.194;2022-11-25T04:58:03;100870.38;;;7.03;83.76
53647;BME280;39550;52.230;5.194;2022-11-25T05:00:28;100874.69;;;7.04;84.04
53647;BME280;39550;52.230;5.194;2022-11-25T05:02:54;100877.22;;;7.02;84.09
53647;BME280;39550;52.230;5.194;2022-11-25T05:05:19;100879.78;;;7.02;84.23
53647;BME280;39550;52.230;5.194;2022-11-25T05:07:45;100895.16;;;7.02;83.50
53647;BME280;39550;52.230;5.194;2022-11-25T05:10:10;100891.69;;;7.02;84.35
53647;BME280;39550;52.230;5.194;2022-11-25T05:12:36;100895.97;;;7.01;83.55
53647;BME280;39550;52.230;5.194;2022-11-25T05:15:03;100893.41;;;7.01;84.45
53647;BME280;39550;52.230;5.194;2022-11-25T05:17:31;100899.34;;;7.00;84.63
53647;BME280;39550;52.230;5.194;2022-11-25T05:19:57;100900.25;;;7.01;84.06
53647;BME280;39550;52.230;5.194;2022-11-25T05:22:25;100905.38;;;7.01;84.57
53647;BME280;39550;52.230;5.194;2022-11-25T05:24:50;100921.59;;;7.01;84.42
53647;BME280;39550;52.230;5.194;2022-11-25T05:27:16;100923.34;;;7.02;83.93
53647;BME280;39550;52.230;5.194;2022-11-25T05:29:42;100928.44;;;7.01;84.64
53647;BME280;39550;52.230;5.194;2022-11-25T05:32:08;100925.78;;;6.99;83.50
53647;BME280;39550;52.230;5.194;2022-11-25T05:34:34;100928.44;;;7.01;83.71
53647;BME280;39550;52.230;5.194;2022-11-25T05:36:59;100916.31;;;6.95;83.81
53647;BME280;39550;52.230;5.194;2022-11-25T05:39:25;100924.97;;;7.00;84.18
53647;BME280;39550;52.230;5.194;2022-11-25T05:41:50;100922.38;;;6.98;84.34
53647;BME280;39550;52.230;5.194;2022-11-25T05:44:16;100923.22;;;6.99;84.61
53647;BME280;39550;52.230;5.194;2022-11-25T05:46:45;100925.78;;;6.99;84.20
53647;BME280;39550;52.230;5.194;2022-11-25T05:49:14;100925.78;;;6.99;84.65
53647;BME280;39550;52.230;5.194;2022-11-25T05:51:40;100922.38;;;6.98;84.44
53647;BME280;39550;52.230;5.194;2022-11-25T05:54:05;100938.59;;;6.99;83.94
53647;BME280;39550;52.230;5.194;2022-11-25T05:56:31;100939.47;;;6.98;83.65
53647;BME280;39550;52.230;5.194;2022-11-25T05:58:59;100943.72;;;6.99;84.25
53647;BME280;39550;52.230;5.194;2022-11-25T06:01:25;100932.59;;;6.97;84.22
53647;BME280;39550;52.230;5.194;2022-11-25T06:03:50;100942.84;;;6.97;83.84
53647;BME280;39550;52.230;5.194;2022-11-25T06:06:16;100945.41;;;6.97;84.00
53647;BME280;39550;52.230;5.194;2022-11-25T06:08:42;100955.66;;;6.97;83.90
53647;BME280;39550;52.230;5.194;2022-11-25T06:11:10;100951.25;;;6.91;84.75
53647;BME280;39550;52.230;5.194;2022-11-25T06:17:11;100960.78;;;6.97;84.74
53647;BME280;39550;52.230;5.194;2022-11-25T06:19:37;100943.59;;;6.93;83.81
53647;BME280;39550;52.230;5.194;2022-11-25T06:22:02;100955.66;;;6.97;84.21
53647;BME280;39550;52.230;5.194;2022-11-25T06:24:27;100960.78;;;6.97;84.20
53647;BME280;39550;52.230;5.194;2022-11-25T06:26:54;100964.16;;;6.96;84.04
53647;BME280;39550;52.230;5.194;2022-11-25T06:29:19;100966.72;;;6.96;83.68
53647;BME280;39550;52.230;5.194;2022-11-25T06:31:45;100970.16;;;6.96;83.64
53647;BME280;39550;52.230;5.194;2022-11-25T06:34:10;100969.28;;;6.96;84.22
53647;BME280;39550;52.230;5.194;2022-11-25T06:36:35;100971.03;;;6.97;83.51
53647;BME280;39550;52.230;5.194;2022-11-25T06:39:01;100974.41;;;6.96;83.70
53647;BME280;39550;52.230;5.194;2022-11-25T06:41:26;100984.66;;;6.96;84.44
53647;BME280;39550;52.230;5.194;2022-11-25T06:43:51;100989.75;;;6.94;84.58
53647;BME280;39550;52.230;5.194;2022-11-25T06:46:18;100991.44;;;6.94;84.53
53647;BME280;39550;52.230;5.194;2022-11-25T06:48:44;100991.44;;;6.94;84.21
53647;BME280;39550;52.230;5.194;2022-11-25T06:51:11;100998.25;;;6.93;84.19
53647;BME280;39550;52.230;5.194;2022-11-25T06:53:37;101002.56;;;6.94;83.71
53647;BME280;39550;52.230;5.194;2022-11-25T06:56:07;100937.41;;;6.50;83.73
53647;BME280;39550;52.230;5.194;2022-11-25T06:58:33;101014.50;;;6.94;84.26
53647;BME280;39550;52.230;5.194;2022-11-25T07:01:17;101011.94;;;6.94;84.18
53647;BME280;39550;52.230;5.194;2022-11-25T07:03:44;101011.91;;;6.92;83.99
53647;BME280;39550;52.230;5.194;2022-11-25T07:06:11;101019.53;;;6.91;84.17
53647;BME280;39550;52.230;5.194;2022-11-25T07:08:37;101004.91;;;6.87;84.14
53647;BME280;39550;52.230;5.194;2022-11-25T07:11:09;101025.56;;;6.93;83.67
53647;BME280;39550;52.230;5.194;2022-11-25T07:13:36;101028.88;;;6.89;84.54
53647;BME280;39550;52.230;5.194;2022-11-25T07:16:05;101038.38;;;6.93;84.58
53647;BME280;39550;52.230;5.194;2022-11-25T07:18:32;101023.69;;;6.86;84.19
53647;BME280;39550;52.230;5.194;2022-11-25T07:23:35;101042.69;;;6.94;84.28
53647;BME280;39550;52.230;5.194;2022-11-25T07:26:05;101051.22;;;6.94;84.48
53647;BME280;39550;52.230;5.194;2022-11-25T07:28:31;101052.94;;;6.94;83.75
53647;BME280;39550;52.230;5.194;2022-11-25T07:31:04;101052.94;;;6.94;83.90
53647;BME280;39550;52.230;5.194;2022-11-25T07:33:29;101049.44;;;6.92;84.66
53647;BME280;39550;52.230;5.194;2022-11-25T07:35:55;101050.34;;;6.92;83.66
53647;BME280;39550;52.230;5.194;2022-11-25T07:38:20;101058.06;;;6.94;84.00
53647;BME280;39550;52.230;5.194;2022-11-25T07:40:45;101064.81;;;6.92;84.40
53647;BME280;39550;52.230;5.194;2022-11-25T07:43:11;101069.09;;;6.91;84.13
53647;BME280;39550;52.230;5.194;2022-11-25T07:45:36;101068.19;;;6.91;84.71
53647;BME280;39550;52.230;5.194;2022-11-25T07:48:01;101075.06;;;6.92;84.69
53647;BME280;39550;52.230;5.194;2022-11-25T07:50:27;101089.66;;;6.94;84.12
53647;BME280;39550;52.230;5.194;2022-11-25T07:52:52;101092.19;;;6.93;84.25
53647;BME280;39550;52.230;5.194;2022-11-25T07:55:18;101093.00;;;6.92;84.46
53647;BME280;39550;52.230;5.194;2022-11-25T07:57:43;101099.06;;;6.94;83.94
53647;BME280;39550;52.230;5.194;2022-11-25T08:00:09;101093.94;;;6.94;84.76
53647;BME280;39550;52.230;5.194;2022-11-25T08:02:34;101102.44;;;6.93;84.70
53647;BME280;39550;52.230;5.194;2022-11-25T08:04:59;101105.81;;;6.92;84.74
53647;BME280;39550;52.230;5.194;2022-11-25T08:07:25;101107.56;;;6.93;84.00
53647;BME280;39550;52.230;5.194;2022-11-25T08:09:50;101105.81;;;6.92;84.36
53647;BME280;39550;52.230;5.194;2022-11-25T08:12:15;101117.00;;;6.94;84.07
53647;BME280;39550;52.230;5.194;2022-11-25T08:14:41;101122.13;;;6.94;83.90
53647;BME280;39550;52.230;5.194;2022-11-25T08:17:06;101128.06;;;6.93;84.05
53647;BME280;39550;52.230;5.194;2022-11-25T08:19:32;101127.25;;;6.94;84.45
53647;BME280;39550;52.230;5.194;2022-11-25T08:21:57;101127.28;;;6.95;83.50
53647;BME280;39550;52.230;5.194;2022-11-25T08:24:22;101131.50;;;6.95;84.18
53647;BME280;39550;52.230;5.194;2022-11-25T08:26:48;101148.63;;;6.96;84.23
53647;BME280;39550;52.230;5.194;2022-11-25T08:29:15;101150.38;;;6.97;84.01
53647;BME280;39550;52.230;5.194;2022-11-25T08:31:41;101154.69;;;6.98;84.06
53647;BME280;39550;52.230;5.194;2022-11-25T08:34:07;101151.22;;;6.97;83.51
53647;BME280;39550;52.230;5.194;2022-11-25T08:36:33;101140.94;;;6.96;83.92
53647;BME280;39550;52.230;5.194;2022-11-25T08:39:00;101157.25;;;6.98;84.27
53647;BME280;39550;52.230;5.194;2022-11-25T08:41:30;101157.25;;;6.98;83.47
53647;BME280;39550;52.230;5.194;2022-11-25T08:43:57;101159.69;;;6.95;83.94
53647;BME280;39550;52.230;5.194;2022-11-25T08:46:25;101155.50;;;6.97;83.54
53647;BME280;39550;52.230;5.194;2022-11-25T08:48:51;101169.19;;;6.99;83.51
53647;BME280;39550;52.230;5.194;2022-11-25T08:51:21;101172.66;;;6.99;83.96
53647;BME280;39550;52.230;5.194;2022-11-25T08:53:48;101157.06;;;6.92;83.73
53647;BME280;39550;52.230;5.194;2022-11-25T08:56:18;101174.31;;;6.99;83.28
53647;BME280;39550;52.230;5.194;2022-11-25T08:58:44;101172.69;;;7.01;83.26
53647;BME280;39550;52.230;5.194;2022-11-25T09:01:11;101183.78;;;7.02;83.65
53647;BME280;39550;52.230;5.194;2022-11-25T09:03:39;101174.44;;;7.02;83.31
53647;BME280;39550;52.230;5.194;2022-11-25T09:06:07;101185.53;;;7.03;83.78
53647;BME280;39550;52.230;5.194;2022-11-25T09:08:32;101185.53;;;7.03;83.26
53647;BME280;39550;52.230;5.194;2022-11-25T09:10:58;101191.53;;;7.03;84.04
53647;BME280;39550;52.230;5.194;2022-11-25T09:13:24;101197.56;;;7.05;83.05
53647;BME280;39550;52.230;5.194;2022-11-25T09:15:50;101193.28;;;7.04;83.41
53647;BME280;39550;52.230;5.194;2022-11-25T09:18:15;101198.41;;;7.04;83.77
53647;BME280;39550;52.230;5.194;2022-11-25T09:20:43;101194.97;;;7.04;83.61
53647;BME280;39550;52.230;5.194;2022-11-25T09:23:08;101195.00;;;7.05;83.04
53647;BME280;39550;52.230;5.194;2022-11-25T09:25:34;101197.63;;;7.07;83.13
53647;BME280;39550;52.230;5.194;2022-11-25T09:28:00;101206.16;;;7.07;83.06
53647;BME280;39550;52.230;5.194;2022-11-25T09:30:26;101208.72;;;7.07;83.91
53647;BME280;39550;52.230;5.194;2022-11-25T09:32:53;101225.84;;;7.08;82.97
53647;BME280;39550;52.230;5.194;2022-11-25T09:35:19;101223.28;;;7.08;83.54
53647;BME280;39550;52.230;5.194;2022-11-25T09:37:45;101224.94;;;7.06;83.93
53647;BME280;39550;52.230;5.194;2022-11-25T09:40:18;101224.09;;;7.07;83.79
53647;BME280;39550;52.230;5.194;2022-11-25T09:42:54;101224.97;;;7.08;82.96
53647;BME280;39550;52.230;5.194;2022-11-25T09:45:50;101229.22;;;7.07;83.94
53647;BME280;39550;52.230;5.194;2022-11-25T09:48:59;101229.25;;;7.09;82.97
53647;BME280;39550;52.230;5.194;2022-11-25T09:51:38;101232.72;;;7.09;83.81
53647;BME280;39550;52.230;5.194;2022-11-25T09:54:08;101240.44;;;7.11;83.40
53647;BME280;39550;52.230;5.194;2022-11-25T09:56:41;101242.16;;;7.10;83.39
53647;BME280;39550;52.230;5.194;2022-11-25T09:59:12;101248.16;;;7.12;83.09
53647;BME280;39550;52.230;5.194;2022-11-25T10:02:00;101250.78;;;7.14;83.37
53647;BME280;39550;52.230;5.194;2022-11-25T10:04:35;101253.38;;;7.15;83.08
53647;BME280;39550;52.230;5.194;2022-11-25T10:07:03;101258.50;;;7.15;83.49
53647;BME280;39550;52.230;5.194;2022-11-25T10:09:33;101261.09;;;7.17;83.29
53647;BME280;39550;52.230;5.194;2022-11-25T10:12:05;101264.59;;;7.19;83.85
53647;BME280;39550;52.230;5.194;2022-11-25T10:14:43;101266.34;;;7.20;83.74
53647;BME280;39550;52.230;5.194;2022-11-25T10:22:44;101262.06;;;7.21;83.16
53647;BME280;39550;52.230;5.194;2022-11-25T10:25:21;101275.91;;;7.26;83.54
53647;BME280;39550;52.230;5.194;2022-11-25T10:30:41;101270.84;;;7.29;82.89
53647;BME280;39550;52.230;5.194;2022-11-25T10:33:19;101288.03;;;7.31;83.53
53647;BME280;39550;52.230;5.194;2022-11-25T10:35:46;101287.19;;;7.32;83.29
53647;BME280;39550;52.230;5.194;2022-11-25T10:38:22;101291.50;;;7.35;82.60
53647;BME280;39550;52.230;5.194;2022-11-25T10:40:51;101296.75;;;7.38;82.84
53647;BME280;39550;52.230;5.194;2022-11-25T10:43:17;101298.47;;;7.39;82.77
53647;BME280;39550;52.230;5.194;2022-11-25T10:48:45;101306.28;;;7.42;82.75
53647;BME280;39550;52.230;5.194;2022-11-25T10:54:23;101324.22;;;7.42;83.18
53647;BME280;39550;52.230;5.194;2022-11-25T10:56:57;101324.22;;;7.42;82.64
53647;BME280;39550;52.230;5.194;2022-11-25T10:59:31;101325.03;;;7.41;83.20
53647;BME280;39550;52.230;5.194;2022-11-25T11:05:01;101337.91;;;7.43;82.70
53647;BME280;39550;52.230;5.194;2022-11-25T11:07:36;101348.19;;;7.44;83.38
53647;BME280;39550;52.230;5.194;2022-11-25T11:13:03;101346.66;;;7.49;83.10
53647;BME280;39550;52.230;5.194;2022-11-25T11:15:30;101352.66;;;7.52;83.06
53647;BME280;39550;52.230;5.194;2022-11-25T11:17:57;101363.03;;;7.55;82.59
53647;BME280;39550;52.230;5.194;2022-11-25T11:20:32;101361.47;;;7.60;82.88
53647;BME280;39550;52.230;5.194;2022-11-25T11:23:08;101360.63;;;7.61;82.78
53647;BME280;39550;52.230;5.194;2022-11-25T11:25:36;101364.75;;;7.56;82.71
53647;BME280;39550;52.230;5.194;2022-11-25T11:28:23;101374.97;;;7.54;82.95
53647;BME280;39550;52.230;5.194;2022-11-25T11:30:55;101380.03;;;7.51;82.97
53647;BME280;39550;52.230;5.194;2022-11-25T11:33:47;101380.88;;;7.52;83.24
53647;BME280;39550;52.230;5.194;2022-11-25T11:39:50;101388.19;;;7.68;83.40
53647;BME280;39550;52.230;5.194;2022-11-25T11:42:39;101388.19;;;7.68;81.83
53647;BME280;39550;52.230;5.194;2022-11-25T11:48:11;101386.59;;;7.72;82.94
53647;BME280;39550;52.230;5.194;2022-11-25T11:50:46;101390.84;;;7.71;82.04
53647;BME280;39550;52.230;5.194;2022-11-25T11:53:21;101391.03;;;7.77;82.59
53647;BME280;39550;52.230;5.194;2022-11-25T11:56:06;101398.66;;;7.74;81.70
53647;BME280;39550;52.230;5.194;2022-11-25T12:03:58;101398.22;;;7.59;83.66
53647;BME280;39550;52.230;5.194;2022-11-25T12:06:27;101411.84;;;7.58;83.58
53647;BME280;39550;52.230;5.194;2022-11-25T12:09:03;101403.28;;;7.57;82.94
53647;BME280;39550;52.230;5.194;2022-11-25T12:11:44;101413.59;;;7.59;82.88
53647;BME280;39550;52.230;5.194;2022-11-25T12:14:44;101414.47;;;7.59;82.79
53647;BME280;39550;52.230;5.194;2022-11-25T12:17:29;101411.84;;;7.58;82.62
53647;BME280;39550;52.230;5.194;2022-11-25T12:20:08;101412.66;;;7.57;83.33
53647;BME280;39550;52.230;5.194;2022-11-25T12:22:48;101429.75;;;7.56;83.17
53647;BME280;39550;52.230;5.194;2022-11-25T12:25:22;101438.34;;;7.58;83.43
53647;BME280;39550;52.230;5.194;2022-11-25T12:28:02;101435.09;;;7.64;83.42
53647;BME280;39550;52.230;5.194;2022-11-25T12:30:37;101438.69;;;7.69;82.36
53647;BME280;39550;52.230;5.194;2022-11-25T12:33:25;101446.38;;;7.69;82.55
53647;BME280;39550;52.230;5.194;2022-11-25T12:38:37;101438.84;;;7.75;82.34
53647;BME280;39550;52.230;5.194;2022-11-25T12:41:22;101443.06;;;7.73;82.08
53647;BME280;39550;52.230;5.194;2022-11-25T12:46:34;101450.00;;;7.76;82.58
53647;BME280;39550;52.230;5.194;2022-11-25T12:49:01;101452.53;;;7.74;82.88
53647;BME280;39550;52.230;5.194;2022-11-25T13:17:25;101480.56;;;7.98;83.50
53647;BME280;39550;52.230;5.194;2022-11-25T13:25:34;101493.56;;;8.03;83.37
53647;BME280;39550;52.230;5.194;2022-11-25T13:28:03;101503.03;;;8.06;82.71
53647;BME280;39550;52.230;5.194;2022-11-25T13:35:51;101506.28;;;8.00;83.29
53647;BME280;39550;52.230;5.194;2022-11-25T13:43:51;101517.13;;;7.90;83.87
53647;BME280;39550;52.230;5.194;2022-11-25T13:48:57;101523.03;;;7.87;83.80
53647;BME280;39550;52.230;5.194;2022-11-25T13:51:24;101525.47;;;7.82;83.54
53647;BME280;39550;52.230;5.194;2022-11-25T13:53:56;101539.97;;;7.82;84.44
53647;BME280;39550;52.230;5.194;2022-11-25T13:56:32;101535.59;;;7.79;83.53
53647;BME280;39550;52.230;5.194;2022-11-25T14:04:12;101556.25;;;7.82;83.85
53647;BME280;39550;52.230;5.194;2022-11-25T14:09:09;101557.88;;;7.80;83.71
53647;BME280;39550;52.230;5.194;2022-11-25T14:11:53;101573.28;;;7.80;84.07
53647;BME280;39550;52.230;5.194;2022-11-25T14:14:33;101564.78;;;7.81;84.66
53647;BME280;39550;52.230;5.194;2022-11-25T14:25:53;101586.06;;;7.79;84.76
53647;BME280;39550;52.230;5.194;2022-11-25T14:28:25;101597.19;;;7.79;84.16
53647;BME280;39550;52.230;5.194;2022-11-25T14:30:56;101599.03;;;7.83;83.40
53647;BME280;39550;52.230;5.194;2022-11-25T14:33:32;101605.31;;;7.93;84.37
53647;BME280;39550;52.230;5.194;2022-11-25T14:36:09;101610.41;;;7.92;84.03
53647;BME280;39550;52.230;5.194;2022-11-25T14:38:56;101617.16;;;7.88;83.89
53647;BME280;39550;52.230;5.194;2022-11-25T14:41:29;101617.94;;;7.86;84.36
53647;BME280;39550;52.230;5.194;2022-11-25T14:44:08;101619.63;;;7.85;84.71
53647;BME280;39550;52.230;5.194;2022-11-25T14:46:57;101622.06;;;7.82;84.61
53647;BME280;39550;52.230;5.194;2022-11-25T14:49:59;101622.97;;;7.82;84.73
53647;BME280;39550;52.230;5.194;2022-11-25T14:52:33;101629.81;;;7.83;84.72
53647;BME280;39550;52.230;5.194;2022-11-25T14:54:59;101635.84;;;7.84;83.81
53647;BME280;39550;52.230;5.194;2022-11-25T14:57:28;101634.09;;;7.83;84.43
53647;BME280;39550;52.230;5.194;2022-11-25T14:59:56;101638.38;;;7.82;83.80
53647;BME280;39550;52.230;5.194;2022-11-25T15:02:23;101638.38;;;7.82;83.94
53647;BME280;39550;52.230;5.194;2022-11-25T15:04:49;101648.63;;;7.82;84.02